»·PEaware :: WAT540 KLAX-KSAN

WAT540 :: KLAX-KSAN

FLIGHT INFORMATION

Flight Status: Arrived
Operator:
Walker Air Transport
More flights by this operator :: More flights under this callsign
Pilot: Michael R. (33632)
Aircraft: GRUMMAN AERO AA5 CHEETAH TIGER
(AA5)
More flights by this aircraft type
Origin: KLAX Los Angeles Intl
United States
Destination: KSAN San Diego Intl-Lindbergh
United States
More flights between these airports :: More routes between these airports
Route:
File this flight plan on PilotEdge
Remarks:
Altitude:
(Current/Filed)
5,500ft
Speed:
(Current/Filed)
130kts
Departed: 13-Feb-21 10:00 AM
Arrived: 13-Feb-21 10:48 AM
Distance/Time
Traveled:
95nm/0:48
Distance/Time
To Go:
Arrived

Flight Plot

Page will automatically refresh every two minutes.


Map Options




Map Legend


Flown Route
Filed Route
Departure Airport
Arrival Airport
Navaid (VOR, NDB)
Fix

Horizontal Profiles

Position Reports

Time Latitude Longitude Heading Altitude Ground
Speed
13-Feb-21 09:30 33.933754 -118.394214 89 102ft 0kts
13-Feb-21 09:31 33.933754 -118.394214 89 102ft 0kts
13-Feb-21 09:32 33.933754 -118.394214 89 102ft 0kts
13-Feb-21 09:33 33.933754 -118.394214 89 102ft 0kts
13-Feb-21 09:34 33.933754 -118.394214 89 102ft 0kts
13-Feb-21 09:36 33.933754 -118.394214 89 102ft 0kts
13-Feb-21 09:37 33.933754 -118.394214 89 102ft 0kts
13-Feb-21 09:38 33.933754 -118.394214 89 102ft 0kts
13-Feb-21 09:39 33.933754 -118.394214 89 102ft 0kts
13-Feb-21 09:40 33.933754 -118.394214 89 102ft 0kts
13-Feb-21 09:41 33.933754 -118.394214 89 102ft 0kts
13-Feb-21 09:42 33.933754 -118.394214 89 102ft 0kts
13-Feb-21 09:43 33.933754 -118.394214 89 102ft 0kts
13-Feb-21 09:44 33.933754 -118.394214 89 102ft 0kts
13-Feb-21 09:45 33.933754 -118.394214 89 102ft 0kts
13-Feb-21 09:46 33.933754 -118.394214 89 102ft 0kts
13-Feb-21 09:47 33.933754 -118.394214 89 102ft 0kts
13-Feb-21 09:48 33.933754 -118.394214 89 102ft 0kts
13-Feb-21 09:49 33.933754 -118.394214 89 102ft 0kts
13-Feb-21 09:50 33.933754 -118.394214 89 102ft 0kts
13-Feb-21 09:50 33.933754 -118.394214 89 102ft 0kts
13-Feb-21 09:52 33.933754 -118.394214 89 102ft 0kts
13-Feb-21 09:53 33.933754 -118.394214 89 102ft 0kts
13-Feb-21 09:53 33.933754 -118.394214 89 102ft 0kts
13-Feb-21 09:55 33.933754 -118.394214 89 102ft 0kts
13-Feb-21 09:55 33.934120 -118.394032 3 102ft 6kts
13-Feb-21 09:56 33.935257 -118.391339 83 100ft 20kts
13-Feb-21 09:58 33.936394 -118.382850 23 94ft 6kts
13-Feb-21 09:58 33.936537 -118.382831 350 94ft 3kts
13-Feb-21 09:59 33.936066 -118.396943 264 428ft 74kts
13-Feb-21 10:00 33.933725 -118.421785 263 1273ft 77kts
13-Feb-21 10:01 33.919447 -118.435843 168 2083ft 83kts
13-Feb-21 10:02 33.897889 -118.424328 154 2876ft 89kts
13-Feb-21 10:03 33.872880 -118.409771 154 3463ft 113kts
13-Feb-21 10:04 33.841696 -118.389460 136 3505ft 135kts
13-Feb-21 10:05 33.815460 -118.356121 133 3505ft 138kts
13-Feb-21 10:06 33.789294 -118.322179 133 3505ft 138kts
13-Feb-21 10:07 33.762675 -118.288563 133 3513ft 140kts
13-Feb-21 10:08 33.736958 -118.256375 133 4042ft 130kts
13-Feb-21 10:09 33.711952 -118.225039 133 4505ft 129kts
13-Feb-21 10:10 33.687014 -118.193747 133 4951ft 129kts
13-Feb-21 10:11 33.662147 -118.162501 133 5383ft 129kts
13-Feb-21 10:12 33.636497 -118.130197 133 5504ft 137kts
13-Feb-21 10:13 33.609905 -118.096619 133 5504ft 139kts
13-Feb-21 10:14 33.583268 -118.062944 133 5504ft 139kts
13-Feb-21 10:15 33.556629 -118.029230 133 5504ft 139kts
13-Feb-21 10:16 33.529921 -117.995392 133 5504ft 139kts
13-Feb-21 10:17 33.503299 -117.961623 133 5504ft 139kts
13-Feb-21 10:18 33.476641 -117.927854 134 5504ft 139kts
13-Feb-21 10:19 33.450032 -117.894147 133 5504ft 139kts
13-Feb-21 10:20 33.423442 -117.860302 133 5504ft 139kts
13-Feb-21 10:21 33.396670 -117.826625 134 5504ft 139kts
13-Feb-21 10:22 33.369705 -117.793410 134 5504ft 139kts
13-Feb-21 10:23 33.342615 -117.760003 133 5504ft 139kts
13-Feb-21 10:24 33.315633 -117.726692 133 5504ft 139kts
13-Feb-21 10:25 33.288699 -117.693402 133 5504ft 139kts
13-Feb-21 10:26 33.261754 -117.660061 133 5504ft 139kts
13-Feb-21 10:27 33.234770 -117.626633 133 5504ft 139kts
13-Feb-21 10:28 33.207892 -117.593297 133 5504ft 139kts
13-Feb-21 10:29 33.180979 -117.559881 133 5504ft 139kts
13-Feb-21 10:30 33.153260 -117.525419 133 5241ft 152kts
13-Feb-21 10:31 33.123781 -117.488742 133 4861ft 154kts
13-Feb-21 10:32 33.094214 -117.451915 133 4491ft 153kts
13-Feb-21 10:33 33.064677 -117.415083 133 4126ft 153kts
13-Feb-21 10:34 33.035251 -117.378350 133 3766ft 153kts
13-Feb-21 10:35 33.006118 -117.341939 133 3514ft 147kts
13-Feb-21 10:36 32.972996 -117.317651 157 3516ft 140kts
13-Feb-21 10:37 32.937163 -117.299701 157 3517ft 139kts
13-Feb-21 10:38 32.901584 -117.281845 157 3516ft 138kts
13-Feb-21 10:39 32.867960 -117.264881 157 3265ft 127kts
13-Feb-21 10:40 32.835933 -117.248649 157 2809ft 123kts
13-Feb-21 10:41 32.805231 -117.233040 157 2224ft 119kts
13-Feb-21 10:42 32.775761 -117.215719 122 1613ft 117kts
13-Feb-21 10:43 32.766762 -117.181221 106 1521ft 102kts
13-Feb-21 10:44 32.757081 -117.153130 146 1461ft 89kts
13-Feb-21 10:45 32.734174 -117.150214 200 1050ft 82kts
13-Feb-21 10:46 32.729297 -117.172681 287 224ft 73kts
13-Feb-21 10:47 32.733149 -117.184159 46 19ft 8kts
13-Feb-21 10:48 32.732873 -117.179879 28 19ft 12kts
13-Feb-21 10:49 32.733995 -117.179563 270 19ft 0kts
13-Feb-21 10:50 32.733995 -117.179563 270 19ft 0kts

Navigation Log

Ident Type
Flight plan parsing failed, navigation log unavailable